Time;durP1;ratioP1;P1;durP2;ratioP2;P2;SDS_P1;SDS_P2;PMS_P1;PMS_P2;Temp;Humidity;BMP_temperature;BMP_pressure;BME280_temperature;BME280_humidity;BME280_pressure;Samples;Min_cycle;Max_cycle;Signal;HPM_P1;HPM_P2
2023/05/20 00:01:38;;;;;;;1.00;1.00;;;;;;;12.25;100.00;97129.72;5104783;27;20043;-59
2023/05/20 00:04:05;;;;;;;1.00;1.00;;;;;;;12.17;100.00;97128.84;5103987;28;20138;-59
2023/05/20 00:06:33;;;;;;;1.02;1.02;;;;;;;12.77;100.00;97212.88;5105415;28;20058;-58
2023/05/20 00:09:00;;;;;;;1.00;1.00;;;;;;;12.73;100.00;97212.03;5105687;28;20563;-58
2023/05/20 00:11:27;;;;;;;1.00;1.00;;;;;;;12.82;100.00;97204.19;5103571;28;20054;-60
2023/05/20 00:13:53;;;;;;;1.00;1.00;;;;;;;12.70;100.00;97200.88;5105149;28;20613;-58
2023/05/20 00:16:20;;;;;;;1.00;1.00;;;;;;;12.43;100.00;97158.50;5058514;28;20064;-60
2023/05/20 00:18:46;;;;;;;1.02;1.02;;;;;;;12.76;100.00;97211.28;5064914;28;20453;-58
2023/05/20 00:21:13;;;;;;;1.10;1.10;;;;;;;12.77;100.00;97206.53;5064410;28;20080;-59
2023/05/20 00:23:40;;;;;;;1.02;1.02;;;;;;;12.42;100.00;97173.59;5063246;28;20048;-58
2023/05/20 00:26:07;;;;;;;1.00;1.00;;;;;;;12.88;100.00;97199.88;5064413;28;20052;-59
2023/05/20 00:28:33;;;;;;;1.10;1.10;;;;;;;12.94;98.81;97192.81;5064467;28;20048;-58
2023/05/20 00:31:00;;;;;;;1.00;1.00;;;;;;;12.93;99.36;97188.44;5042627;28;20048;-59
2023/05/20 00:33:26;;;;;;;1.00;1.00;;;;;;;12.95;100.00;97174.94;5044314;28;20045;-59
2023/05/20 00:35:53;;;;;;;1.00;1.00;;;;;;;12.97;99.90;97183.72;5044358;28;20072;-58
2023/05/20 00:38:20;;;;;;;1.00;1.00;;;;;;;12.93;98.72;97188.44;5044396;28;20464;-59
2023/05/20 00:40:46;;;;;;;1.10;1.10;;;;;;;13.03;99.62;97184.19;5042784;28;20061;-59
2023/05/20 00:43:13;;;;;;;1.10;1.10;;;;;;;13.04;99.62;97183.78;5043942;28;20045;-60
2023/05/20 00:45:40;;;;;;;1.02;1.02;;;;;;;12.96;99.04;97179.31;5042593;28;20543;-58
2023/05/20 00:48:08;;;;;;;1.10;1.10;;;;;;;12.93;100.00;97177.31;5088545;28;20442;-58
2023/05/20 00:50:35;;;;;;;1.05;1.05;;;;;;;12.83;99.51;97172.47;5084575;28;20067;-59
2023/05/20 00:53:02;;;;;;;0.98;0.98;;;;;;;12.87;100.00;97170.50;5084332;28;20067;-61
2023/05/20 00:55:29;;;;;;;1.10;1.10;;;;;;;12.96;99.65;97176.53;5082864;28;20075;-60
2023/05/20 00:57:56;;;;;;;1.00;1.00;;;;;;;13.00;99.70;97171.84;5083929;28;20108;-59
2023/05/20 01:00:22;;;;;;;1.10;1.10;;;;;;;13.12;99.01;97174.34;5082922;28;20430;-59
2023/05/20 01:02:49;;;;;;;1.00;1.00;;;;;;;13.14;99.03;97171.97;5084298;28;20047;-59
2023/05/20 01:05:16;;;;;;;1.20;1.20;;;;;;;13.26;97.88;97168.13;5084626;28;20456;-59
2023/05/20 01:07:43;;;;;;;1.10;1.10;;;;;;;13.13;97.61;97164.84;5086120;28;20055;-59
2023/05/20 01:10:10;;;;;;;1.00;1.00;;;;;;;13.22;98.30;97168.09;5088421;28;20050;-59
2023/05/20 01:12:49;;;;;;;1.00;1.00;;;;;;;13.12;99.43;97168.00;5088152;28;20056;-60
2023/05/20 01:15:18;;;;;;;1.00;1.00;;;;;;;13.03;98.77;97148.84;5088580;28;20106;-60
2023/05/20 01:17:51;;;;;;;0.93;0.93;;;;;;;13.21;98.30;97151.78;5088185;28;20048;-59
2023/05/20 01:20:19;;;;;;;1.10;1.10;;;;;;;13.07;99.64;97162.78;5087932;28;20477;-59
2023/05/20 01:22:47;;;;;;;1.10;1.10;;;;;;;13.06;100.00;97159.19;5088031;28;20581;-58
2023/05/20 01:25:13;;;;;;;1.08;1.08;;;;;;;13.09;99.69;97158.41;5088029;28;20086;-60
2023/05/20 01:27:40;;;;;;;1.10;1.10;;;;;;;12.94;100.00;97140.00;5086982;28;20074;-59
2023/05/20 01:30:08;;;;;;;1.00;1.00;;;;;;;11.01;99.74;96823.44;5088147;28;20044;-59
2023/05/20 01:32:38;;;;;;;1.10;1.10;;;;;;;13.01;99.74;97151.19;5087971;28;20059;-59
2023/05/20 01:35:05;;;;;;;0.98;0.98;;;;;;;12.58;100.00;97093.59;5087971;28;20044;-59
2023/05/20 01:37:35;;;;;;;1.10;1.10;;;;;;;12.33;100.00;97070.28;5087948;28;20159;-59
2023/05/20 01:40:04;;;;;;;0.90;0.90;;;;;;;12.77;100.00;97146.16;5086513;28;20079;-59
2023/05/20 01:42:31;;;;;;;1.00;1.00;;;;;;;12.53;100.00;97130.06;5086651;28;20568;-59
2023/05/20 01:44:59;;;;;;;1.00;1.00;;;;;;;12.63;100.00;97140.47;5087475;28;20433;-58
2023/05/20 01:47:25;;;;;;;1.00;1.00;;;;;;;12.74;100.00;97130.25;5088156;28;20107;-59
2023/05/20 01:49:53;;;;;;;1.00;1.00;;;;;;;12.71;100.00;97128.22;5107988;28;20085;-59
2023/05/20 01:52:20;;;;;;;1.00;1.00;;;;;;;12.50;100.00;97122.47;5108152;28;20056;-59
2023/05/20 01:54:50;;;;;;;1.00;1.00;;;;;;;11.95;100.00;97070.63;5106498;28;20066;-58
2023/05/20 01:57:20;;;;;;;0.90;0.90;;;;;;;11.91;100.00;97056.75;5107597;28;20051;-59
2023/05/20 01:59:48;;;;;;;0.90;0.90;;;;;;;12.12;100.00;97106.16;5107954;27;20482;-59
2023/05/20 02:02:15;;;;;;;0.90;0.90;;;;;;;12.43;100.00;97136.28;5107609;28;20051;-59
2023/05/20 02:04:46;;;;;;;0.95;0.95;;;;;;;12.18;100.00;97096.31;5106446;28;20130;-59
2023/05/20 02:07:14;;;;;;;1.00;1.00;;;;;;;12.40;100.00;97159.25;5108001;28;20437;-58
2023/05/20 02:09:41;;;;;;;1.00;1.00;;;;;;;11.93;100.00;97084.13;5107959;28;20058;-59
2023/05/20 02:12:08;;;;;;;1.00;1.00;;;;;;;12.13;100.00;97133.56;5107465;28;20047;-58
2023/05/20 02:14:35;;;;;;;1.00;1.00;;;;;;;11.80;100.00;97068.88;5105664;28;20087;-59
2023/05/20 02:17:02;;;;;;;0.98;0.98;;;;;;;12.31;100.00;97132.97;5106914;28;20057;-61
2023/05/20 02:19:29;;;;;;;0.90;0.90;;;;;;;12.31;100.00;97139.31;5107392;28;20130;-60
2023/05/20 02:21:55;;;;;;;1.10;1.10;;;;;;;12.36;100.00;97136.19;5105737;28;20089;-59
2023/05/20 02:24:22;;;;;;;1.00;1.00;;;;;;;12.38;100.00;97133.84;5107435;28;20058;-59
2023/05/20 02:26:50;;;;;;;1.00;1.00;;;;;;;12.31;100.00;97133.78;5107105;28;20058;-59
2023/05/20 02:29:16;;;;;;;0.90;0.90;;;;;;;12.42;100.00;97137.47;5106998;28;20431;-59
2023/05/20 02:31:43;;;;;;;1.00;1.00;;;;;;;12.30;100.00;97148.81;5106599;28;20047;-59
2023/05/20 02:34:10;;;;;;;1.00;1.00;;;;;;;12.30;100.00;97132.16;5107249;27;20154;-59
2023/05/20 02:36:36;;;;;;;1.00;1.00;;;;;;;12.18;100.00;97129.63;5106695;28;20062;-61
2023/05/20 02:39:03;;;;;;;0.90;0.90;;;;;;;12.02;100.00;97142.91;5105958;28;20052;-58
2023/05/20 02:41:30;;;;;;;0.90;0.90;;;;;;;12.10;100.00;97144.63;5106854;28;20044;-59
2023/05/20 02:43:56;;;;;;;0.90;0.90;;;;;;;12.19;100.00;97154.25;5107073;28;20051;-59
2023/05/20 02:46:23;;;;;;;1.00;1.00;;;;;;;12.20;100.00;97149.50;5106458;28;20505;-59
2023/05/20 02:48:50;;;;;;;0.93;0.93;;;;;;;12.23;100.00;97139.63;5094471;28;20428;-58
2023/05/20 02:51:16;;;;;;;0.90;0.90;;;;;;;11.82;100.00;97130.38;5085805;28;20055;-59
2023/05/20 02:53:43;;;;;;;1.00;1.00;;;;;;;11.56;100.00;97097.06;5083974;28;20044;-59
2023/05/20 02:56:09;;;;;;;0.90;0.90;;;;;;;11.74;100.00;97145.31;5085172;28;20052;-59
2023/05/20 02:58:36;;;;;;;0.90;0.90;;;;;;;11.87;100.00;97141.16;5085371;28;20517;-58
2023/05/20 03:01:03;;;;;;;0.95;0.95;;;;;;;11.91;100.00;97137.25;5084365;28;20044;-59
2023/05/20 03:03:30;;;;;;;0.98;0.98;;;;;;;11.89;100.00;97144.31;5086422;28;20071;-62
2023/05/20 03:05:56;;;;;;;1.00;1.00;;;;;;;12.02;100.00;97129.03;5084642;28;20056;-59
2023/05/20 03:08:23;;;;;;;1.00;1.00;;;;;;;11.99;100.00;97140.91;5085871;28;20502;-59
2023/05/20 03:10:50;;;;;;;0.98;0.98;;;;;;;12.19;100.00;97147.91;5086148;28;20048;-58
2023/05/20 03:13:17;;;;;;;0.93;0.93;;;;;;;11.63;100.00;97088.88;5085803;28;20044;-58
2023/05/20 03:15:44;;;;;;;0.90;0.90;;;;;;;12.15;100.00;97131.19;5086083;28;20501;-60
2023/05/20 03:18:12;;;;;;;0.90;0.90;;;;;;;12.26;100.00;97136.88;5086051;28;20059;-59
2023/05/20 03:20:40;;;;;;;0.95;0.95;;;;;;;12.20;100.00;97082.84;5084475;28;20121;-59
2023/05/20 03:23:07;;;;;;;1.00;1.00;;;;;;;12.40;100.00;97114.00;5085580;28;20546;-61
2023/05/20 03:25:35;;;;;;;1.00;1.00;;;;;;;12.52;100.00;97128.44;5084242;28;20051;-59
2023/05/20 03:28:02;;;;;;;1.00;1.00;;;;;;;12.60;98.61;97130.09;5085763;28;20047;-58
2023/05/20 03:30:29;;;;;;;0.90;0.90;;;;;;;12.49;100.00;97120.88;5085375;28;20052;-59
2023/05/20 03:32:59;;;;;;;1.00;1.00;;;;;;;12.36;100.00;97122.28;5085095;28;20056;-59
2023/05/20 03:35:25;;;;;;;0.90;0.90;;;;;;;12.57;100.00;97114.19;5085875;28;20141;-60
2023/05/20 03:37:52;;;;;;;1.00;1.00;;;;;;;12.66;99.88;97116.69;5079992;28;20083;-58
2023/05/20 03:40:20;;;;;;;1.00;1.00;;;;;;;12.88;99.00;97110.13;5065709;28;20052;-59
2023/05/20 03:42:47;;;;;;;1.00;1.00;;;;;;;13.14;97.53;97113.56;5065260;28;20060;-59
2023/05/20 03:45:13;;;;;;;1.00;1.00;;;;;;;13.41;96.40;97120.53;5064795;28;20135;-59
2023/05/20 03:47:40;;;;;;;1.00;1.00;;;;;;;13.45;93.45;97099.09;5065170;28;20052;-60
2023/05/20 03:50:07;;;;;;;1.02;1.02;;;;;;;13.80;93.78;97131.13;5104953;28;20051;-59
2023/05/20 03:52:34;;;;;;;1.10;1.10;;;;;;;13.77;92.36;97134.69;5105338;28;20514;-59
2023/05/20 03:55:00;;;;;;;1.17;1.17;;;;;;;13.96;92.74;97145.56;5105425;27;20606;-60
2023/05/20 03:57:28;;;;;;;1.15;1.15;;;;;;;14.17;91.64;97131.72;5105426;28;20554;-59
2023/05/20 03:59:55;;;;;;;1.40;1.40;;;;;;;13.92;91.44;97100.16;5103759;28;20108;-59
2023/05/20 04:02:21;;;;;;;1.10;1.10;;;;;;;14.13;92.01;97139.25;5105034;28;20054;-59
2023/05/20 04:04:51;;;;;;;1.10;1.10;;;;;;;13.75;90.07;97034.06;5105250;28;20063;-58
2023/05/20 04:07:18;;;;;;;1.15;1.15;;;;;;;14.37;90.28;97127.47;5105238;28;20130;-59
2023/05/20 04:09:45;;;;;;;1.30;1.30;;;;;;;14.47;90.75;97123.88;5105008;28;20454;-61
2023/05/20 04:12:12;;;;;;;1.20;1.20;;;;;;;14.30;90.49;97088.41;5104908;28;20066;-58
2023/05/20 04:14:41;;;;;;;1.20;1.20;;;;;;;14.41;89.52;97094.81;5104839;28;20490;-60
2023/05/20 04:17:08;;;;;;;1.10;1.10;;;;;;;14.77;88.53;97138.31;5103387;28;20130;-59
2023/05/20 04:19:37;;;;;;;1.30;1.30;;;;;;;14.94;87.20;97135.56;5104958;28;20126;-58
2023/05/20 04:22:03;;;;;;;1.30;1.30;;;;;;;15.04;85.86;97145.13;5104673;28;20533;-60
2023/05/20 04:24:30;;;;;;;1.20;1.20;;;;;;;15.30;85.58;97141.94;5104880;28;20074;-59
2023/05/20 04:26:57;;;;;;;1.33;1.33;;;;;;;15.18;86.84;97117.25;5103251;28;20054;-59
2023/05/20 04:29:24;;;;;;;1.33;1.33;;;;;;;15.43;87.06;97145.19;5104831;28;20048;-59
2023/05/20 04:31:50;;;;;;;1.25;1.25;;;;;;;15.25;88.32;97138.78;5104484;28;20048;-58
2023/05/20 04:34:19;;;;;;;1.40;1.40;;;;;;;15.37;86.29;97147.53;5104683;28;20432;-59
2023/05/20 04:36:45;;;;;;;1.40;1.40;;;;;;;15.63;86.17;97133.22;5104668;28;20055;-59
2023/05/20 04:39:14;;;;;;;1.48;1.48;;;;;;;15.85;86.47;97136.75;5104165;28;20434;-58
2023/05/20 04:41:41;;;;;;;1.40;1.40;;;;;;;15.91;85.23;97152.72;5103556;28;20043;-59
2023/05/20 04:44:08;;;;;;;1.50;1.50;;;;;;;16.10;82.05;97146.69;5090897;28;20044;-61
2023/05/20 04:46:35;;;;;;;1.52;1.52;;;;;;;16.00;80.82;97085.22;5083201;28;20047;-59
2023/05/20 04:49:03;;;;;;;1.30;1.30;;;;;;;16.61;80.51;97144.09;5091504;28;20207;-59
2023/05/20 04:51:30;;;;;;;1.50;1.50;;;;;;;16.78;79.77;97141.59;5076363;28;20111;-62
2023/05/20 04:53:57;;;;;;;1.52;1.52;;;;;;;16.94;78.64;97150.31;5063962;28;20490;-59
2023/05/20 04:56:24;;;;;;;1.70;1.70;;;;;;;17.07;78.25;97140.25;5063766;28;20048;-58
2023/05/20 04:58:51;;;;;;;1.60;1.60;;;;;;;17.28;75.88;97157.66;5063806;28;20059;-60
2023/05/20 05:01:18;;;;;;;1.70;1.70;;;;;;;17.10;75.11;97097.44;5063884;28;20048;-59
2023/05/20 05:03:45;;;;;;;1.73;1.73;;;;;;;17.46;72.40;97160.38;5063879;28;20350;-60
2023/05/20 05:06:11;;;;;;;1.70;1.70;;;;;;;17.04;70.58;97071.09;5078990;28;20059;-58
2023/05/20 05:08:38;;;;;;;1.70;1.70;;;;;;;17.85;67.80;97161.63;5079059;28;20048;-59
2023/05/20 05:11:05;;;;;;;1.65;1.65;;;;;;;17.63;68.44;97165.03;5063491;28;20055;-61
2023/05/20 05:13:32;;;;;;;1.60;1.60;;;;;;;17.83;66.40;97166.84;5063613;28;20542;-59
2023/05/20 05:16:00;;;;;;;1.80;1.80;;;;;;;18.06;67.07;97171.81;5063978;28;20463;-59
2023/05/20 05:18:27;;;;;;;1.55;1.55;;;;;;;18.05;66.59;97178.66;5063599;28;20087;-58
2023/05/20 05:21:05;;;;;;;1.70;1.70;;;;;;;18.19;66.33;97175.69;5064087;28;20066;-59
2023/05/20 05:23:32;;;;;;;1.65;1.65;;;;;;;17.72;67.78;97140.16;5063522;28;20532;-59
2023/05/20 05:25:59;;;;;;;1.70;1.70;;;;;;;17.73;67.34;97158.53;5064021;28;20059;-59
2023/05/20 05:28:25;;;;;;;1.75;1.75;;;;;;;17.77;68.07;97187.31;5063441;28;20044;-60
2023/05/20 05:30:55;;;;;;;1.60;1.60;;;;;;;17.65;68.36;97100.97;5063156;28;20048;-58
2023/05/20 05:33:22;;;;;;;1.63;1.63;;;;;;;18.14;67.46;97192.97;5063382;28;20048;-59
2023/05/20 05:35:49;;;;;;;1.67;1.67;;;;;;;18.42;65.40;97189.88;5063590;28;20055;-60
2023/05/20 05:38:16;;;;;;;1.70;1.70;;;;;;;18.52;64.49;97194.59;5063567;28;20056;-60
2023/05/20 05:40:43;;;;;;;1.77;1.77;;;;;;;18.20;66.42;97149.25;5062875;28;20139;-58
2023/05/20 05:43:10;;;;;;;1.70;1.70;;;;;;;18.36;65.61;97205.56;5077028;28;20266;-61
2023/05/20 05:45:36;;;;;;;1.73;1.73;;;;;;;18.63;64.76;97194.44;5082645;28;20506;-59
2023/05/20 05:48:03;;;;;;;1.70;1.70;;;;;;;18.25;63.79;97086.28;5082078;28;20063;-60
2023/05/20 05:50:30;;;;;;;1.85;1.85;;;;;;;19.26;62.05;97200.03;5074549;28;20071;-64
2023/05/20 05:52:56;;;;;;;2.22;2.22;;;;;;;19.33;63.06;97171.06;5068885;28;20056;-65
2023/05/20 05:55:23;;;;;;;1.90;1.90;;;;;;;18.90;62.86;97120.31;5082316;28;20052;-62
2023/05/20 05:57:50;;;;;;;2.17;2.17;;;;;;;18.88;63.57;97173.28;5079624;28;20056;-65
2023/05/20 06:00:17;;;;;;;2.08;2.08;;;;;;;19.07;63.88;97203.50;5085475;28;20055;-63
2023/05/20 06:02:43;;;;;;;1.90;1.90;;;;;;;19.01;65.37;97196.78;5086887;28;20490;-74
2023/05/20 06:05:10;;;;;;;1.90;1.90;;;;;;;19.03;63.73;97194.31;5082144;28;20059;-67
2023/05/20 06:07:37;;;;;;;1.70;1.70;;;;;;;18.25;64.16;97137.56;5071871;28;20103;-62
2023/05/20 06:10:04;;;;;;;1.80;1.80;;;;;;;18.70;62.70;97197.97;5066902;28;20059;-61
2023/05/20 06:12:31;;;;;;;1.73;1.73;;;;;;;18.22;62.92;97096.34;5066414;28;20044;-58
2023/05/20 06:14:58;;;;;;;1.98;1.98;;;;;;;18.45;60.95;97127.34;5070986;28;20039;-55
2023/05/20 06:17:24;;;;;;;1.83;1.83;;;;;;;19.43;62.24;97190.56;5075420;28;20519;-58
2023/05/20 06:19:51;;;;;;;1.90;1.90;;;;;;;19.95;60.08;97190.13;5070699;28;20050;-65
2023/05/20 06:22:18;;;;;;;1.95;1.95;;;;;;;20.17;59.29;97185.75;5084932;28;20048;-56
2023/05/20 06:24:44;;;;;;;2.03;2.03;;;;;;;20.23;59.00;97155.88;5087007;28;20507;-65
2023/05/20 06:27:11;;;;;;;2.10;2.10;;;;;;;19.31;58.94;97092.84;5079586;28;20067;-60
2023/05/20 06:29:38;;;;;;;1.92;1.92;;;;;;;20.03;59.26;97186.75;5066623;28;20055;-58
2023/05/20 06:32:07;;;;;;;2.03;2.03;;;;;;;19.09;58.69;96984.84;5093610;28;20572;-61
2023/05/20 06:34:34;;;;;;;2.05;2.05;;;;;;;20.73;58.76;97198.72;5081645;28;20054;-64
2023/05/20 06:37:01;;;;;;;2.58;2.47;;;;;;;20.66;57.28;97204.50;5086163;28;20048;-60
2023/05/20 06:39:27;;;;;;;2.22;2.22;;;;;;;20.81;55.96;97181.25;5079524;28;20056;-59
2023/05/20 06:41:54;;;;;;;1.90;1.90;;;;;;;20.26;56.32;97200.03;5065189;28;20478;-57
2023/05/20 06:44:21;;;;;;;2.03;2.03;;;;;;;20.06;57.86;97202.75;5066028;28;20069;-57
2023/05/20 06:46:48;;;;;;;1.75;1.75;;;;;;;19.64;58.04;97115.56;5065815;28;20044;-62
2023/05/20 06:49:15;;;;;;;2.00;2.00;;;;;;;20.59;56.96;97196.19;5071076;28;20076;-60
2023/05/20 06:51:43;;;;;;;1.95;1.95;;;;;;;20.73;57.04;97181.81;5069978;28;20048;-61
2023/05/20 06:54:09;;;;;;;2.38;2.30;;;;;;;21.39;55.87;97176.75;5065553;28;20110;-60
2023/05/20 06:56:36;;;;;;;2.40;2.35;;;;;;;21.10;53.89;97175.03;5065484;28;20063;-62
2023/05/20 06:59:03;;;;;;;2.22;2.22;;;;;;;21.37;54.88;97173.56;5064991;28;20074;-55
2023/05/20 07:01:29;;;;;;;2.20;2.20;;;;;;;20.95;55.57;97174.50;5064035;28;20045;-61
2023/05/20 07:03:56;;;;;;;2.20;2.20;;;;;;;19.99;53.81;96926.50;5066023;28;20060;-63
2023/05/20 07:06:23;;;;;;;2.30;2.30;;;;;;;21.69;52.76;97190.53;5084838;28;20098;-61
2023/05/20 07:08:49;;;;;;;2.83;2.72;;;;;;;21.83;51.97;97181.75;5078606;28;20576;-66
2023/05/20 07:11:16;;;;;;;2.70;2.60;;;;;;;21.22;51.71;97132.88;5067156;28;20431;-61
2023/05/20 07:13:42;;;;;;;2.10;2.10;;;;;;;21.25;52.13;97086.91;5066762;28;20048;-62
2023/05/20 07:16:09;;;;;;;2.80;2.70;;;;;;;21.72;53.19;97189.66;5077483;28;20048;-58
2023/05/20 07:18:36;;;;;;;2.45;2.38;;;;;;;21.70;54.30;97192.13;5079344;28;20052;-68
2023/05/20 07:21:03;;;;;;;2.60;2.50;;;;;;;21.54;53.38;97192.13;5070870;28;20044;-59
2023/05/20 07:23:29;;;;;;;2.25;2.22;;;;;;;20.91;52.47;97146.41;5085162;28;20044;-58
2023/05/20 07:25:56;;;;;;;2.20;2.20;;;;;;;20.74;53.88;97156.03;5084290;28;20055;-63
2023/05/20 07:28:23;;;;;;;2.17;2.17;;;;;;;20.91;53.24;97179.44;5064493;28;20075;-61
2023/05/20 07:30:49;;;;;;;2.17;2.17;;;;;;;21.06;53.49;97203.25;5069986;28;20071;-58
2023/05/20 07:33:16;;;;;;;2.20;2.20;;;;;;;21.42;52.92;97181.50;5070298;28;20066;-60
2023/05/20 07:35:44;;;;;;;2.20;2.20;;;;;;;21.19;52.44;97155.50;5084169;28;20095;-63
2023/05/20 07:38:11;;;;;;;2.20;2.20;;;;;;;21.74;52.88;97192.81;5084894;28;20060;-62
2023/05/20 07:40:41;;;;;;;2.10;2.10;;;;;;;21.92;52.79;97190.41;5085054;28;20193;-61
2023/05/20 07:43:07;;;;;;;2.60;2.50;;;;;;;21.59;51.82;97185.94;5084967;28;20082;-64
2023/05/20 07:45:38;;;;;;;2.40;2.33;;;;;;;21.59;51.86;97197.22;5074802;28;20414;-60
2023/05/20 07:48:07;;;;;;;2.15;2.15;;;;;;;21.13;54.04;97141.16;5064546;28;20136;-55
2023/05/20 07:50:34;;;;;;;2.20;2.20;;;;;;;21.33;54.13;97139.06;5064943;28;20447;-59
2023/05/20 07:53:01;;;;;;;2.20;2.20;;;;;;;20.92;53.19;97164.13;5067925;28;20633;-61
2023/05/20 07:55:28;;;;;;;2.53;2.42;;;;;;;21.16;54.40;97202.25;5064139;28;20467;-58
2023/05/20 07:57:54;;;;;;;1.90;1.90;;;;;;;21.16;55.58;97213.53;5075067;28;20051;-61
2023/05/20 08:00:21;;;;;;;2.13;2.13;;;;;;;20.88;56.74;97208.47;5071412;28;20079;-63
2023/05/20 08:02:48;;;;;;;2.10;2.10;;;;;;;20.83;57.36;97194.88;5079100;28;20055;-57
2023/05/20 08:05:15;;;;;;;1.95;1.95;;;;;;;21.27;55.52;97214.06;5064978;28;20424;-62
2023/05/20 08:07:42;;;;;;;2.03;2.03;;;;;;;21.19;54.03;97218.28;5070687;28;20044;-61
2023/05/20 08:10:09;;;;;;;2.20;2.20;;;;;;;21.22;55.30;97217.41;5064860;28;20534;-60
2023/05/20 08:12:35;;;;;;;2.13;2.13;;;;;;;20.90;55.87;97239.78;5065050;28;20132;-61
2023/05/20 08:15:03;;;;;;;1.80;1.80;;;;;;;20.19;56.35;97233.91;5071132;28;20044;-61
2023/05/20 08:17:29;;;;;;;2.00;2.00;;;;;;;20.56;54.62;97225.19;5082848;28;20048;-59
2023/05/20 08:19:56;;;;;;;2.08;2.08;;;;;;;20.79;56.72;97231.56;5068959;28;20113;-59
2023/05/20 08:22:23;;;;;;;2.10;2.10;;;;;;;20.54;56.24;97182.59;5077102;28;20052;-59
2023/05/20 08:24:49;;;;;;;2.10;2.10;;;;;;;20.85;55.98;97243.09;5067075;28;20049;-61
2023/05/20 08:27:16;;;;;;;2.00;2.00;;;;;;;20.65;54.72;97239.50;5063497;28;20044;-60
2023/05/20 08:29:46;;;;;;;2.03;2.03;;;;;;;20.68;54.58;97233.78;5080431;28;20529;-59
2023/05/20 08:32:12;;;;;;;2.00;2.00;;;;;;;20.99;55.24;97242.88;5082191;28;20062;-62
2023/05/20 08:34:39;;;;;;;2.05;2.05;;;;;;;20.52;53.85;97297.63;5065979;28;20538;-63
2023/05/20 08:37:06;;;;;;;2.25;2.25;;;;;;;20.71;54.80;97246.19;5063939;28;20138;-62
2023/05/20 08:39:32;;;;;;;2.30;2.30;;;;;;;20.82;54.43;97241.16;5073756;28;20055;-60
2023/05/20 08:42:00;;;;;;;2.17;2.17;;;;;;;21.41;53.78;97202.47;5069784;28;20141;-65
2023/05/20 08:44:27;;;;;;;2.10;2.10;;;;;;;21.95;51.39;97237.47;5075043;28;20040;-58
2023/05/20 08:46:55;;;;;;;2.25;2.25;;;;;;;22.06;54.20;97240.81;5063201;28;20060;-60
2023/05/20 08:49:22;;;;;;;2.13;2.13;;;;;;;21.70;51.54;97242.09;5061772;28;20048;-62
2023/05/20 08:51:49;;;;;;;2.25;2.25;;;;;;;21.25;54.20;97247.53;5063012;28;20066;-60
2023/05/20 08:54:18;;;;;;;2.00;2.00;;;;;;;21.18;52.58;97244.88;5070641;28;20059;-60
2023/05/20 08:56:44;;;;;;;1.92;1.92;;;;;;;19.78;54.23;97034.56;5069665;28;20048;-62
2023/05/20 08:59:11;;;;;;;2.05;2.05;;;;;;;20.81;55.34;97203.78;5083592;28;20055;-65
2023/05/20 09:01:44;;;;;;;2.33;2.30;;;;;;;21.26;55.65;97239.88;5083036;28;20052;-58
2023/05/20 09:04:11;;;;;;;2.00;2.00;;;;;;;20.93;55.56;97234.09;5074657;28;20047;-60
2023/05/20 09:06:42;;;;;;;2.20;2.20;;;;;;;20.77;56.07;97227.59;5069894;28;20053;-59
2023/05/20 09:09:11;;;;;;;2.10;2.10;;;;;;;20.58;55.22;97172.84;5073971;28;20056;-58
2023/05/20 09:11:39;;;;;;;2.15;2.15;;;;;;;20.37;56.75;97192.19;5072141;28;20063;-61
2023/05/20 09:14:06;;;;;;;2.00;2.00;;;;;;;20.81;56.28;97225.50;5080562;28;20051;-62
2023/05/20 09:16:33;;;;;;;1.85;1.85;;;;;;;21.42;54.45;97220.97;5080284;28;20083;-61
2023/05/20 09:19:00;;;;;;;2.38;2.33;;;;;;;21.69;53.62;97213.09;5082265;28;20125;-65
2023/05/20 09:21:28;;;;;;;2.08;2.08;;;;;;;21.58;54.13;97212.53;5079100;28;20099;-65
2023/05/20 09:23:58;;;;;;;2.17;2.17;;;;;;;20.99;53.65;97198.56;5076067;28;20049;-62
2023/05/20 09:26:27;;;;;;;2.13;2.13;;;;;;;20.76;56.42;97195.03;5062916;28;20048;-61
2023/05/20 09:28:58;;;;;;;2.08;2.08;;;;;;;21.21;55.67;97226.31;5066332;28;20041;-64
2023/05/20 09:31:32;;;;;;;2.20;2.20;;;;;;;20.73;55.00;97179.00;5082207;28;20063;-59
2023/05/20 09:34:00;;;;;;;2.10;2.10;;;;;;;20.57;56.94;97212.69;5080311;28;20599;-58
2023/05/20 09:36:33;;;;;;;2.15;2.15;;;;;;;20.16;58.53;97215.88;5078753;28;20052;-60
2023/05/20 09:39:04;;;;;;;1.90;1.90;;;;;;;20.16;58.82;97213.06;5074112;28;20051;-62
2023/05/20 09:41:39;;;;;;;1.92;1.92;;;;;;;19.66;58.37;97183.38;5070911;28;20051;-60
2023/05/20 09:44:06;;;;;;;1.92;1.92;;;;;;;19.86;59.42;97209.53;5067786;28;20052;-61
2023/05/20 09:46:35;;;;;;;1.80;1.80;;;;;;;19.73;59.89;97200.91;5071442;28;20052;-61
2023/05/20 09:49:02;;;;;;;2.00;2.00;;;;;;;20.26;58.35;97208.47;5087787;28;20055;-60
2023/05/20 09:51:31;;;;;;;1.95;1.95;;;;;;;20.06;59.64;97202.00;5085875;28;20529;-62
2023/05/20 09:53:58;;;;;;;2.17;2.17;;;;;;;19.72;59.51;97204.16;5066691;28;20048;-61
2023/05/20 09:56:27;;;;;;;1.92;1.92;;;;;;;19.57;59.76;97200.78;5076578;28;20572;-59
2023/05/20 09:58:57;;;;;;;2.00;2.00;;;;;;;19.70;60.52;97262.81;5067529;28;20075;-65
2023/05/20 10:01:24;;;;;;;1.90;1.90;;;;;;;19.74;60.26;97207.34;5064382;28;20052;-64
2023/05/20 10:03:52;;;;;;;2.15;2.15;;;;;;;20.07;59.40;97197.94;5078421;28;20048;-61
2023/05/20 10:06:33;;;;;;;2.17;2.08;;;;;;;20.08;60.22;97199.50;5083395;28;20506;-59
2023/05/20 10:09:02;;;;;;;1.80;1.80;;;;;;;19.85;59.30;97202.34;5078646;28;20071;-60
2023/05/20 10:11:32;;;;;;;1.88;1.88;;;;;;;19.89;59.47;97203.06;5068994;28;20047;-58
2023/05/20 10:14:21;;;;;;;1.70;1.70;;;;;;;19.80;58.65;97195.19;5078791;28;20816;-60
2023/05/20 10:17:07;;;;;;;1.90;1.90;;;;;;;20.05;58.29;97189.13;5086654;28;20056;-62
2023/05/20 10:19:35;;;;;;;1.98;1.98;;;;;;;20.10;57.98;97189.44;5086354;28;20059;-62
2023/05/20 10:22:07;;;;;;;2.10;2.10;;;;;;;20.26;58.46;97177.53;5086662;28;20048;-62
2023/05/20 10:24:34;;;;;;;1.80;1.80;;;;;;;20.09;59.05;97184.25;5086963;28;20246;-63
2023/05/20 10:27:03;;;;;;;2.00;2.00;;;;;;;20.04;57.72;97185.53;5086190;28;20142;-62
2023/05/20 10:29:42;;;;;;;1.98;1.98;;;;;;;19.35;58.03;97130.09;5085186;28;20048;-61
2023/05/20 10:32:09;;;;;;;1.90;1.90;;;;;;;19.17;58.47;97062.13;5085800;28;20056;-62
2023/05/20 10:34:47;;;;;;;2.13;2.13;;;;;;;19.91;59.59;97172.50;5086082;28;20051;-63
2023/05/20 10:37:28;;;;;;;2.00;2.00;;;;;;;20.10;58.69;97168.94;5086025;28;20048;-62
2023/05/20 10:40:08;;;;;;;1.83;1.83;;;;;;;20.18;58.37;97159.19;5084762;28;20052;-62
2023/05/20 10:42:36;;;;;;;1.90;1.90;;;;;;;20.34;58.36;97165.72;5086430;28;20074;-63
2023/05/20 10:45:03;;;;;;;1.90;1.90;;;;;;;20.46;57.06;97161.44;5084816;28;20144;-63
2023/05/20 10:47:30;;;;;;;2.30;2.28;;;;;;;20.48;57.68;97167.44;5085200;28;20063;-62
2023/05/20 10:49:58;;;;;;;2.47;2.38;;;;;;;20.65;56.22;97149.41;5086865;28;20506;-62
2023/05/20 10:52:24;;;;;;;2.10;2.10;;;;;;;19.85;57.39;97042.09;5105569;28;20056;-62
2023/05/20 10:54:56;;;;;;;1.90;1.90;;;;;;;20.77;55.56;97157.97;5087829;28;20047;-62
2023/05/20 10:57:25;;;;;;;2.00;2.00;;;;;;;19.82;53.83;97062.63;5084097;28;20143;-60
2023/05/20 10:59:52;;;;;;;2.13;2.13;;;;;;;19.95;56.32;97178.88;5085866;28;20056;-60
2023/05/20 11:02:25;;;;;;;2.10;2.10;;;;;;;20.60;56.64;97161.16;5071336;28;20127;-60
2023/05/20 11:04:53;;;;;;;1.95;1.95;;;;;;;20.19;55.81;97155.13;5067813;28;20048;-60
2023/05/20 11:07:30;;;;;;;1.90;1.90;;;;;;;20.47;55.38;97149.75;5065520;28;20443;-62
2023/05/20 11:09:57;;;;;;;1.90;1.90;;;;;;;19.71;54.31;97037.53;5068656;28;20399;-60
2023/05/20 11:12:25;;;;;;;1.92;1.92;;;;;;;20.19;55.01;97147.50;5083899;28;20051;-60
2023/05/20 11:14:53;;;;;;;2.10;2.10;;;;;;;19.92;54.99;97098.16;5081296;28;20052;-60
2023/05/20 11:17:20;;;;;;;2.20;2.20;;;;;;;20.62;54.65;97159.53;5076676;28;20197;-60
2023/05/20 11:19:47;;;;;;;2.05;2.05;;;;;;;20.26;54.15;97147.38;5073735;28;20048;-60
2023/05/20 11:22:14;;;;;;;2.15;2.15;;;;;;;20.49;60.89;97154.97;5064688;28;20255;-60
2023/05/20 11:24:41;;;;;;;1.83;1.83;;;;;;;19.62;58.33;97113.16;5064572;28;20049;-62
2023/05/20 11:27:08;;;;;;;2.20;2.20;;;;;;;19.89;63.60;97147.63;5077182;28;20479;-61
2023/05/20 11:29:35;;;;;;;1.73;1.73;;;;;;;19.58;61.41;97068.25;5064261;28;20098;-62
2023/05/20 11:32:02;;;;;;;2.10;2.10;;;;;;;20.64;59.23;97142.19;5078434;28;20052;-63
2023/05/20 11:34:33;;;;;;;1.85;1.85;;;;;;;20.79;58.80;97120.94;5069409;28;20089;-64